Time,TemperatureF,DewpointF,PressureIn,WindDirection,WindDirectionDegrees,WindSpeedMPH,WindSpeedGustMPH,Humidity,HourlyPrecipIn,Conditions,Clouds,dailyrainin,SoftwareType,DateUTC
2013-02-24 00:13:00,34.1,33.0,29.88,SE,135,0.0,0.0,96,0.00,,,0.00,weatherlink.com 1.10,2013-02-24 05:13:00,
2013-02-24 00:28:00,34.0,33.0,29.88,SE,135,0.0,1.0,96,0.01,,,0.01,weatherlink.com 1.10,2013-02-24 05:28:00,
2013-02-24 00:43:00,33.9,33.0,29.88,SE,135,0.0,0.0,97,0.01,,,0.01,weatherlink.com 1.10,2013-02-24 05:43:00,
2013-02-24 00:58:00,33.7,33.0,29.88,SE,135,0.0,0.0,97,0.01,,,0.01,weatherlink.com 1.10,2013-02-24 05:58:00,
2013-02-24 01:13:00,33.7,33.0,29.87,SE,135,0.0,0.0,97,0.01,,,0.01,weatherlink.com 1.10,2013-02-24 06:13:00,
2013-02-24 01:28:00,33.7,33.0,29.86,SE,135,0.0,0.0,97,0.00,,,0.01,weatherlink.com 1.10,2013-02-24 06:28:00,
2013-02-24 01:43:00,33.6,33.0,29.86,SE,135,0.0,0.0,97,0.00,,,0.01,weatherlink.com 1.10,2013-02-24 06:43:00,
2013-02-24 01:58:00,33.5,33.0,29.86,SE,135,0.0,0.0,97,0.00,,,0.01,weatherlink.com 1.10,2013-02-24 06:58:00,
2013-02-24 02:13:00,33.4,33.0,29.86,SE,135,0.0,0.0,97,0.00,,,0.01,weatherlink.com 1.10,2013-02-24 07:13:00,
2013-02-24 02:28:00,33.4,33.0,29.85,SE,135,0.0,0.0,97,0.01,,,0.02,weatherlink.com 1.10,2013-02-24 07:28:00,
2013-02-24 02:43:00,33.3,33.0,29.85,SE,135,0.0,0.0,97,0.01,,,0.02,weatherlink.com 1.10,2013-02-24 07:43:00,
2013-02-24 02:58:00,33.3,33.0,29.84,SE,135,0.0,0.0,97,0.01,,,0.02,weatherlink.com 1.10,2013-02-24 07:58:00,
2013-02-24 03:13:00,33.3,33.0,29.83,SE,135,0.0,0.0,97,0.01,,,0.02,weatherlink.com 1.10,2013-02-24 08:13:00,
2013-02-24 03:28:00,33.3,33.0,29.83,SE,135,0.0,0.0,97,0.00,,,0.02,weatherlink.com 1.10,2013-02-24 08:28:00,
2013-02-24 03:43:00,33.2,33.0,29.83,SE,135,0.0,0.0,97,0.00,,,0.02,weatherlink.com 1.10,2013-02-24 08:43:00,
2013-02-24 03:58:00,33.0,32.0,29.84,SE,135,0.0,0.0,97,0.00,,,0.02,weatherlink.com 1.10,2013-02-24 08:58:00,
2013-02-24 04:13:00,32.9,32.0,29.84,SE,135,0.0,0.0,97,0.00,,,0.02,weatherlink.com 1.10,2013-02-24 09:13:00,
2013-02-24 04:28:00,32.9,32.0,29.85,SE,135,0.0,0.0,97,0.00,,,0.02,weatherlink.com 1.10,2013-02-24 09:28:00,
2013-02-24 04:43:00,32.8,32.0,29.84,SE,135,0.0,0.0,97,0.00,,,0.02,weatherlink.com 1.10,2013-02-24 09:43:00,
2013-02-24 04:58:00,32.7,32.0,29.84,SE,135,0.0,0.0,98,0.00,,,0.02,weatherlink.com 1.10,2013-02-24 09:58:00,
2013-02-24 05:13:00,32.7,32.0,29.84,SE,135,0.0,0.0,98,0.00,,,0.02,weatherlink.com 1.10,2013-02-24 10:13:00,
2013-02-24 05:28:00,32.6,32.0,29.84,SE,135,0.0,0.0,98,0.00,,,0.02,weatherlink.com 1.10,2013-02-24 10:28:00,
2013-02-24 05:43:00,32.6,32.0,29.84,SE,135,0.0,0.0,98,0.00,,,0.02,weatherlink.com 1.10,2013-02-24 10:43:00,
2013-02-24 05:58:00,32.6,32.0,29.84,SE,135,0.0,0.0,98,0.00,,,0.02,weatherlink.com 1.10,2013-02-24 10:58:00,
2013-02-24 06:13:00,32.5,32.0,29.83,SE,135,0.0,0.0,98,0.00,,,0.02,weatherlink.com 1.10,2013-02-24 11:13:00,
2013-02-24 06:28:00,32.5,32.0,29.84,SE,135,0.0,0.0,98,0.00,,,0.02,weatherlink.com 1.10,2013-02-24 11:28:00,
2013-02-24 06:43:00,32.5,32.0,29.83,SE,135,0.0,0.0,98,0.00,,,0.02,weatherlink.com 1.10,2013-02-24 11:43:00,
2013-02-24 06:58:00,32.4,32.0,29.84,SE,135,0.0,0.0,98,0.00,,,0.02,weatherlink.com 1.10,2013-02-24 11:58:00,
2013-02-24 07:14:00,32.5,32.0,29.84,SE,135,0.0,1.0,98,0.00,,,0.02,weatherlink.com 1.10,2013-02-24 12:14:00,
2013-02-24 07:29:00,32.6,32.0,29.84,SE,135,0.0,1.0,98,0.00,,,0.02,weatherlink.com 1.10,2013-02-24 12:29:00,
2013-02-24 07:44:00,32.9,32.0,29.84,SE,135,0.0,0.0,98,0.01,,,0.03,weatherlink.com 1.10,2013-02-24 12:44:00,
2013-02-24 07:59:00,33.2,33.0,29.84,SE,135,0.0,0.0,98,0.01,,,0.03,weatherlink.com 1.10,2013-02-24 12:59:00,
2013-02-24 08:14:00,33.4,33.0,29.84,SE,135,0.0,0.0,98,0.01,,,0.03,weatherlink.com 1.10,2013-02-24 13:14:00,
2013-02-24 08:29:00,33.7,33.0,29.84,SE,132,0.0,2.0,98,0.01,,,0.03,weatherlink.com 1.10,2013-02-24 13:29:00,
2013-02-24 08:44:00,34.0,34.0,29.83,SE,131,0.0,1.0,98,0.01,,,0.04,weatherlink.com 1.10,2013-02-24 13:44:00,
2013-02-24 08:59:00,34.3,34.0,29.83,SE,131,0.0,1.0,98,0.01,,,0.04,weatherlink.com 1.10,2013-02-24 13:59:00,
2013-02-24 09:14:00,34.7,34.0,29.83,North,355,2.0,3.0,98,0.01,,,0.04,weatherlink.com 1.10,2013-02-24 14:14:00,
2013-02-24 09:29:00,34.5,34.0,29.82,NW,317,0.0,3.0,98,0.01,,,0.04,weatherlink.com 1.10,2013-02-24 14:29:00,
2013-02-24 09:44:00,34.8,34.0,29.82,NNE,20,4.0,6.0,98,0.00,,,0.04,weatherlink.com 1.10,2013-02-24 14:44:00,
2013-02-24 09:59:00,35.3,35.0,29.82,NNE,32,0.0,3.0,97,0.00,,,0.04,weatherlink.com 1.10,2013-02-24 14:59:00,
2013-02-24 10:14:00,35.7,35.0,29.82,WSW,254,0.0,2.0,96,0.00,,,0.04,weatherlink.com 1.10,2013-02-24 15:14:00,
2013-02-24 10:29:00,36.1,34.0,29.82,ENE,71,0.0,3.0,93,0.00,,,0.04,weatherlink.com 1.10,2013-02-24 15:29:00,
2013-02-24 10:44:00,36.8,34.0,29.81,NNE,32,0.0,6.0,90,0.00,,,0.04,weatherlink.com 1.10,2013-02-24 15:44:00,
2013-02-24 10:59:00,38.0,35.0,29.81,NE,43,2.0,3.0,87,0.00,,,0.04,weatherlink.com 1.10,2013-02-24 15:59:00,
2013-02-24 11:14:00,38.7,34.0,29.81,SSW,209,2.0,5.0,83,0.00,,,0.04,weatherlink.com 1.10,2013-02-24 16:14:00,
2013-02-24 11:29:00,39.3,35.0,29.81,South,189,0.0,5.0,83,0.00,,,0.04,weatherlink.com 1.10,2013-02-24 16:29:00,
2013-02-24 11:44:00,41.0,35.0,29.80,SE,131,1.0,7.0,80,0.00,,,0.04,weatherlink.com 1.10,2013-02-24 16:44:00,
2013-02-24 11:59:00,42.2,35.0,29.80,SW,234,2.0,5.0,76,0.00,,,0.04,weatherlink.com 1.10,2013-02-24 16:59:00,
2013-02-24 12:14:00,41.3,34.0,29.80,WNW,302,1.0,7.0,74,0.00,,,0.04,weatherlink.com 1.10,2013-02-24 17:14:00,
2013-02-24 12:29:00,41.9,35.0,29.79,North,360,3.0,7.0,75,0.00,,,0.04,weatherlink.com 1.10,2013-02-24 17:29:00,
2013-02-24 12:44:00,42.2,33.0,29.79,SSW,200,2.0,9.0,71,0.00,,,0.04,weatherlink.com 1.10,2013-02-24 17:44:00,
2013-02-24 12:59:00,41.2,32.0,29.79,West,266,2.0,8.0,70,0.00,,,0.04,weatherlink.com 1.10,2013-02-24 17:59:00,
2013-02-24 13:14:00,39.8,31.0,29.80,NNW,333,0.0,6.0,71,0.00,,,0.04,weatherlink.com 1.10,2013-02-24 18:14:00,
2013-02-24 13:29:00,39.2,31.0,29.80,WSW,248,0.0,6.0,72,0.00,,,0.04,weatherlink.com 1.10,2013-02-24 18:29:00,
2013-02-24 13:44:00,38.6,31.0,29.79,ENE,59,0.0,8.0,74,0.00,,,0.04,weatherlink.com 1.10,2013-02-24 18:44:00,
2013-02-24 13:59:00,38.1,31.0,29.80,South,188,1.0,7.0,75,0.00,,,0.04,weatherlink.com 1.10,2013-02-24 18:59:00,
2013-02-24 14:14:00,37.7,30.0,29.80,NW,314,5.0,5.0,74,0.00,,,0.04,weatherlink.com 1.10,2013-02-24 19:14:00,
2013-02-24 14:29:00,36.9,29.0,29.81,WSW,241,1.0,7.0,74,0.00,,,0.04,weatherlink.com 1.10,2013-02-24 19:29:00,
2013-02-24 14:44:00,35.9,28.0,29.82,NNW,330,2.0,10.0,73,0.00,,,0.04,weatherlink.com 1.10,2013-02-24 19:44:00,
2013-02-24 14:59:00,35.7,27.0,29.82,SSE,160,2.0,7.0,72,0.00,,,0.04,weatherlink.com 1.10,2013-02-24 19:59:00,
2013-02-24 15:14:00,35.5,27.0,29.82,NE,36,1.0,10.0,71,0.00,,,0.04,weatherlink.com 1.10,2013-02-24 20:14:00,
2013-02-24 15:29:00,35.8,28.0,29.83,WNW,296,1.0,7.0,72,0.00,,,0.04,weatherlink.com 1.10,2013-02-24 20:29:00,
2013-02-24 15:44:00,36.5,28.0,29.83,South,180,0.0,6.0,70,0.00,,,0.04,weatherlink.com 1.10,2013-02-24 20:44:00,
2013-02-24 15:59:00,37.5,27.0,29.83,SW,221,4.0,9.0,66,0.00,,,0.04,weatherlink.com 1.10,2013-02-24 20:59:00,
2013-02-24 16:14:00,36.1,25.0,29.83,SW,234,1.0,8.0,65,0.00,,,0.04,weatherlink.com 1.10,2013-02-24 21:14:00,
2013-02-24 16:29:00,35.3,25.0,29.84,South,188,3.0,8.0,67,0.00,,,0.04,weatherlink.com 1.10,2013-02-24 21:29:00,
2013-02-24 16:44:00,35.1,25.0,29.84,East,86,5.0,12.0,66,0.00,,,0.04,weatherlink.com 1.10,2013-02-24 21:44:00,
2013-02-24 16:59:00,34.6,25.0,29.85,SW,222,1.0,7.0,67,0.00,,,0.04,weatherlink.com 1.10,2013-02-24 21:59:00,
2013-02-24 17:14:00,34.2,24.0,29.86,SW,217,3.0,11.0,67,0.00,,,0.04,weatherlink.com 1.10,2013-02-24 22:14:00,
2013-02-24 17:29:00,33.9,24.0,29.88,West,267,2.0,11.0,68,0.00,,,0.04,weatherlink.com 1.10,2013-02-24 22:29:00,
2013-02-24 17:44:00,33.6,25.0,29.88,SSW,192,0.0,8.0,71,0.00,,,0.04,weatherlink.com 1.10,2013-02-24 22:44:00,
2013-02-24 18:00:00,33.4,25.0,29.89,SW,224,2.0,7.0,71,0.00,,,0.04,weatherlink.com 1.10,2013-02-24 23:00:00,
2013-02-24 18:15:00,33.2,25.0,29.90,North,360,0.0,8.0,73,0.00,,,0.04,weatherlink.com 1.10,2013-02-24 23:15:00,
2013-02-24 18:30:00,32.9,26.0,29.91,SSW,194,3.0,6.0,76,0.00,,,0.04,weatherlink.com 1.10,2013-02-24 23:30:00,
2013-02-24 18:45:00,32.4,27.0,29.91,SSE,163,1.0,8.0,79,0.00,,,0.04,weatherlink.com 1.10,2013-02-24 23:45:00,
2013-02-24 19:00:00,31.9,27.0,29.92,SW,225,0.0,4.0,83,0.00,,,0.04,weatherlink.com 1.10,2013-02-25 00:00:00,
2013-02-24 19:15:00,31.7,27.0,29.92,West,281,1.0,4.0,84,0.00,,,0.04,weatherlink.com 1.10,2013-02-25 00:15:00,
2013-02-24 19:30:00,31.9,27.0,29.93,SSW,198,1.0,5.0,82,0.00,,,0.04,weatherlink.com 1.10,2013-02-25 00:30:00,
2013-02-24 19:45:00,32.1,27.0,29.94,ESE,123,0.0,5.0,80,0.00,,,0.04,weatherlink.com 1.10,2013-02-25 00:45:00,
2013-02-24 20:00:00,32.0,27.0,29.94,WSW,242,2.0,5.0,80,0.00,,,0.04,weatherlink.com 1.10,2013-02-25 01:00:00,
2013-02-24 20:15:00,31.9,26.0,29.95,South,172,0.0,3.0,79,0.00,,,0.04,weatherlink.com 1.10,2013-02-25 01:15:00,
2013-02-24 20:30:00,31.8,26.0,29.95,WSW,256,0.0,6.0,79,0.00,,,0.04,weatherlink.com 1.10,2013-02-25 01:30:00,
2013-02-24 20:45:00,31.8,26.0,29.96,NE,53,2.0,5.0,79,0.00,,,0.04,weatherlink.com 1.10,2013-02-25 01:45:00,
2013-02-24 21:00:00,32.1,26.0,29.96,NW,315,1.0,5.0,78,0.00,,,0.04,weatherlink.com 1.10,2013-02-25 02:00:00,
2013-02-24 21:15:00,31.9,25.0,29.97,South,184,3.0,12.0,75,0.00,,,0.04,weatherlink.com 1.10,2013-02-25 02:15:00,
2013-02-24 21:30:00,31.5,25.0,29.97,SE,141,2.0,8.0,76,0.00,,,0.04,weatherlink.com 1.10,2013-02-25 02:30:00,
2013-02-24 21:45:00,31.2,24.0,29.97,SE,138,1.0,6.0,75,0.00,,,0.04,weatherlink.com 1.10,2013-02-25 02:45:00,
2013-02-24 22:00:00,30.8,24.0,29.98,ENE,61,1.0,5.0,76,0.00,,,0.04,weatherlink.com 1.10,2013-02-25 03:00:00,
2013-02-24 22:15:00,30.7,24.0,29.98,North,9,4.0,7.0,76,0.00,,,0.04,weatherlink.com 1.10,2013-02-25 03:15:00,
2013-02-24 22:30:00,30.5,24.0,29.98,ENE,72,0.0,4.0,76,0.00,,,0.04,weatherlink.com 1.10,2013-02-25 03:30:00,
2013-02-24 22:45:00,30.6,24.0,29.98,NW,308,0.0,2.0,77,0.00,,,0.04,weatherlink.com 1.10,2013-02-25 03:45:00,
2013-02-24 23:00:00,30.8,24.0,29.99,South,178,0.0,3.0,77,0.00,,,0.04,weatherlink.com 1.10,2013-02-25 04:00:00,
2013-02-24 23:15:00,31.1,24.0,30.00,SSE,162,0.0,2.0,76,0.00,,,0.04,weatherlink.com 1.10,2013-02-25 04:15:00,
2013-02-24 23:30:00,31.5,25.0,30.00,SE,141,0.0,4.0,76,0.00,,,0.04,weatherlink.com 1.10,2013-02-25 04:30:00,
2013-02-24 23:45:00,31.6,25.0,30.01,ENE,77,0.0,3.0,76,0.00,,,0.04,weatherlink.com 1.10,2013-02-25 04:45:00,